This is the latest recevied weather packets stored in our database for station/object KC8ZBC. If no packets are shown the sender has not sent any weather packets the latest 1 day(s).
| Time | Temp. | Humidity | Pressure | Rain* | Wind** | Luminosity | Snow |
|---|---|---|---|---|---|---|---|
| 1778065274 | 5° C | 75% | 985.1 hPa | 0 mm | - | 10 W/m² | - |
| 1778064970 | 5° C | 75% | 984.8 hPa | 0 mm | - | 11 W/m² | - |
| 1778064667 | 4.44° C | 74% | 984.9 hPa | 0 mm | - | 11 W/m² | - |
| 1778063456 | 5° C | 74% | 984.8 hPa | 0 mm | - | 0 W/m² | - |
| 1778062548 | 5.56° C | 73% | 984.8 hPa | 0 mm | - | 0 W/m² | - |
| 1778061340 | 5.56° C | 80% | 984.3 hPa | 0 mm | - | 0 W/m² | - |
| 1778061036 | 6.11° C | 81% | 983.9 hPa | 0 mm | - | 0 W/m² | - |
| 1778059221 | 6.11° C | 83% | 984 hPa | 0 mm | - | 0 W/m² | - |
| 1778058920 | 6.11° C | 83% | 984 hPa | 0 mm | - | 0 W/m² | - |
| 1778058314 | 6.11° C | 82% | 984 hPa | 0 mm | - | 0 W/m² | - |
| 1778058010 | 6.11° C | 82% | 983.7 hPa | 0 mm | - | 0 W/m² | - |
| 1778057707 | 6.67° C | 81% | 983.8 hPa | 0 mm | - | 0 W/m² | - |
| 1778056494 | 6.67° C | 79% | 983.9 hPa | 0 mm | - | 0 W/m² | - |
| 1778056191 | 6.67° C | 78% | 983.9 hPa | 0 mm | - | 0 W/m² | - |
| 1778055888 | 6.67° C | 78% | 984 hPa | 0 mm | - | 0 W/m² | - |
| 1778055282 | 6.67° C | 76% | 984.2 hPa | 0 mm | - | 0 W/m² | - |
| 1778054979 | 6.67° C | 76% | 984.1 hPa | 0 mm | - | 0 W/m² | - |
| 1778054676 | 6.67° C | 75% | 983.9 hPa | 0 mm | - | 0 W/m² | - |
| 1778054071 | 6.67° C | 73% | 983.8 hPa | 0 mm | - | 0 W/m² | - |
| 1778053465 | 7.22° C | 72% | 983.7 hPa | 0 mm | - | 0 W/m² | - |
| 1778053162 | 7.22° C | 72% | 983.7 hPa | 0 mm | - | 0 W/m² | - |
| 1778052860 | 7.22° C | 71% | 984 hPa | 0 mm | - | 0 W/m² | - |
| 1778052557 | 7.22° C | 70% | 983.9 hPa | 0 mm | - | 0 W/m² | - |
| 1778051952 | 7.78° C | 68% | 983.9 hPa | 0 mm | - | 0 W/m² | - |
| 1778051650 | 7.78° C | 68% | 983.8 hPa | 0 mm | - | 0 W/m² | - |
* Rain latest hour (hover to see other rain measurements)
** Current wind speed in m/s (hover to see current wind gust speed)